Airfield :
LOGIN :

Register | Disclaimer

   EN    FR    IT 

 










Legend :    VFR   Marginal VFR   IFR   Intensive IFR   Very Intensive IFR
Visi :
Ceiling :
>= 8 km
>= 3000ft
5 to 8 km
1000 to 3000 ft
1500m to 5 km
500 to 1000 ft
800 to 1500m
200 to 500 ft
< 800m
< 200 ft
Symbols :   Thunderstorms  Fog  Heavy snow  Heavy precipitations  Wind > 20 kt
SIGMETs :     Misc.  Thunderstorms  Icing  Turbulence  Mountain Waves  Volcanic Ashes






- Airport Elevation : 85 ft
- IATA code : SFA


DTTX - Thyna/El Maou - Sfax

CURRENT METAR :
  • 090100Z 33011KT 9999 FEW020 SCT030 17/13 Q1013

EXPIRED METARs :
  • 090000Z 03012KT 9999 FEW020 SCT030 18/15 Q1013
  • 082300Z 02013KT 9999 FEW020 SCT030 18/15 Q1013

TAF TAF DTTX
Valid from the 09 at 00:00 until the 10 at 00:00 UTC


082300Z 0900/0924 36017G30KT 8000 SCT020 SCT030
PROB40
TEMPO 0900/0906 4000 -TS SHRA FEW026CB
BECMG 0914/0916 31015KT



MET'MAP, your aeronautical weather chart ! - Copyright ORBIFLY December 2007 - Disclaimer

ORBIFLY MET'MAP TEAM :

Programming & Development : Alexandra Zaïnal
Concept & original design : Baudouin d'Aumeries
Assistance for programming : Marc-Olivier Méhu
Technical & hardware support : Manuel Goepfert

Contact : metmap@orbifly.com




SOURCES & CREDITS :

   NOAA